createdAt,value
2017-12-30T00:00:29.315Z,1006.06
2017-12-30T00:01:56.346Z,1006.04
2017-12-30T00:03:23.491Z,1006.05
2017-12-30T00:04:50.743Z,1006.04
2017-12-30T00:06:17.813Z,1006.07
2017-12-30T00:07:45.027Z,1006.09
2017-12-30T00:09:11.998Z,1006.12
2017-12-30T00:10:39.156Z,1006.10
2017-12-30T00:12:06.442Z,1006.09
2017-12-30T00:13:33.595Z,1006.08
2017-12-30T00:15:00.868Z,1006.06
2017-12-30T00:16:27.747Z,1006.04
2017-12-30T00:17:54.883Z,1006.01
2017-12-30T00:19:21.918Z,1006.01
2017-12-30T00:20:49.207Z,1005.98
2017-12-30T00:22:16.474Z,1006.01
2017-12-30T00:23:43.730Z,1006.00
2017-12-30T00:25:10.837Z,1005.94
2017-12-30T00:26:37.987Z,1005.95
2017-12-30T00:28:05.124Z,1005.94
2017-12-30T00:29:32.259Z,1005.93
2017-12-30T00:30:59.487Z,1005.94
2017-12-30T00:32:26.650Z,1005.93
2017-12-30T00:33:53.864Z,1005.92
2017-12-30T00:35:21.055Z,1005.90
2017-12-30T00:36:47.997Z,1005.93
2017-12-30T00:38:15.224Z,1005.93
2017-12-30T00:39:42.324Z,1005.92
2017-12-30T00:41:09.470Z,1005.92
2017-12-30T00:42:36.604Z,1005.92
2017-12-30T00:44:03.705Z,1005.94
2017-12-30T00:45:30.889Z,1005.92
2017-12-30T00:46:57.907Z,1005.90
2017-12-30T00:48:25.134Z,1005.92
2017-12-30T00:49:52.219Z,1005.91
2017-12-30T00:51:19.302Z,1005.88
2017-12-30T00:52:46.698Z,1005.88
2017-12-30T00:54:13.734Z,1005.89
2017-12-30T00:55:40.870Z,1005.89
2017-12-30T00:57:07.802Z,1005.90
2017-12-30T00:58:34.966Z,1005.93
2017-12-30T01:00:02.269Z,1005.92
2017-12-30T01:01:29.332Z,1005.93
2017-12-30T01:02:56.670Z,1005.95
2017-12-30T01:04:23.811Z,1005.98
2017-12-30T01:05:50.950Z,1006.01
2017-12-30T01:07:18.328Z,1006.03
2017-12-30T01:08:45.467Z,1006.05
2017-12-30T01:10:12.302Z,1006.07
2017-12-30T01:11:39.271Z,1006.05
2017-12-30T01:13:06.247Z,1006.05
2017-12-30T01:14:33.465Z,1006.07
2017-12-30T01:16:00.607Z,1006.08
2017-12-30T01:17:27.795Z,1006.09
2017-12-30T01:18:54.986Z,1006.10
2017-12-30T01:20:22.123Z,1006.12
2017-12-30T01:21:49.146Z,1006.12
2017-12-30T01:23:16.220Z,1006.14
2017-12-30T01:24:43.339Z,1006.09
2017-12-30T01:26:10.563Z,1006.04
2017-12-30T01:27:37.744Z,1006.02
2017-12-30T01:29:05.058Z,1006.03
2017-12-30T01:30:32.278Z,1006.02
2017-12-30T01:31:59.443Z,1006.02
2017-12-30T01:33:26.733Z,1005.99
2017-12-30T01:34:53.886Z,1006.00
2017-12-30T01:36:21.062Z,1005.99
2017-12-30T01:37:48.096Z,1006.00
2017-12-30T01:39:15.091Z,1006.00
2017-12-30T01:40:41.818Z,1006.02
2017-12-30T01:42:09.235Z,1006.06
2017-12-30T01:43:36.242Z,1006.09
2017-12-30T01:45:03.382Z,1006.06
2017-12-30T01:46:30.585Z,1006.04
2017-12-30T01:47:57.749Z,1006.03
2017-12-30T01:49:24.887Z,1006.02
2017-12-30T01:50:52.180Z,1006.02
2017-12-30T01:52:19.318Z,1006.00
2017-12-30T01:53:46.413Z,1005.98
2017-12-30T01:55:13.603Z,1005.95
2017-12-30T01:56:40.664Z,1005.89
2017-12-30T01:58:07.948Z,1005.84
2017-12-30T01:59:35.169Z,1005.80
2017-12-30T02:01:02.447Z,1005.78
2017-12-30T02:02:29.448Z,1005.79
2017-12-30T02:03:56.599Z,1005.77
2017-12-30T02:05:23.722Z,1005.79
2017-12-30T02:06:51.079Z,1005.75
2017-12-30T02:08:18.035Z,1005.70
2017-12-30T02:09:45.283Z,1005.70
2017-12-30T02:11:12.456Z,1005.65
2017-12-30T02:12:39.643Z,1005.67
2017-12-30T02:14:06.910Z,1005.70
2017-12-30T02:15:34.064Z,1005.70
2017-12-30T02:17:01.199Z,1005.72
2017-12-30T02:18:28.512Z,1005.67
2017-12-30T02:19:55.548Z,1005.68
2017-12-30T02:21:22.543Z,1005.68
2017-12-30T02:22:55.489Z,1005.64
2017-12-30T02:24:16.908Z,1005.62
2017-12-30T02:25:44.040Z,1005.61
2017-12-30T02:27:11.349Z,1005.60
2017-12-30T02:28:38.676Z,1005.58
2017-12-30T02:30:05.844Z,1005.54
2017-12-30T02:31:33.086Z,1005.51
2017-12-30T02:33:00.242Z,1005.47
2017-12-30T02:34:27.487Z,1005.45
2017-12-30T02:35:54.715Z,1005.41
2017-12-30T02:37:21.960Z,1005.37
2017-12-30T02:38:48.940Z,1005.35
2017-12-30T02:40:16.187Z,1005.36
2017-12-30T02:41:43.258Z,1005.32
2017-12-30T02:43:10.334Z,1005.28
2017-12-30T02:44:37.454Z,1005.26
2017-12-30T02:46:04.663Z,1005.18
2017-12-30T02:47:31.759Z,1005.21
2017-12-30T02:48:59.036Z,1005.22
2017-12-30T02:50:26.181Z,1005.18
2017-12-30T02:51:53.485Z,1005.17
2017-12-30T02:53:20.516Z,1005.17
2017-12-30T02:54:47.671Z,1005.14
2017-12-30T02:56:14.710Z,1005.12
2017-12-30T02:57:41.696Z,1005.15
2017-12-30T02:59:08.992Z,1005.18
2017-12-30T03:00:36.039Z,1005.20
2017-12-30T03:02:03.343Z,1005.18
2017-12-30T03:03:30.280Z,1005.25
2017-12-30T03:04:57.413Z,1005.26
2017-12-30T03:06:24.623Z,1005.22
2017-12-30T03:07:51.807Z,1005.16
2017-12-30T03:09:18.979Z,1005.15
2017-12-30T03:10:46.277Z,1005.19
2017-12-30T03:12:13.051Z,1005.21
2017-12-30T03:13:40.071Z,1005.22
2017-12-30T03:15:07.264Z,1005.30
2017-12-30T03:16:34.541Z,1005.30
2017-12-30T03:18:01.740Z,1005.29
2017-12-30T03:19:28.707Z,1005.28
2017-12-30T03:20:55.910Z,1005.28
2017-12-30T03:22:23.002Z,1005.27
2017-12-30T03:23:50.135Z,1005.28
2017-12-30T03:25:17.391Z,1005.26
2017-12-30T03:26:44.494Z,1005.22
2017-12-30T03:28:11.418Z,1005.21
2017-12-30T03:29:38.390Z,1005.22
2017-12-30T03:31:05.347Z,1005.20
2017-12-30T03:32:32.581Z,1005.19
2017-12-30T03:33:59.757Z,1005.20
2017-12-30T03:35:26.707Z,1005.21
2017-12-30T03:36:53.916Z,1005.21
2017-12-30T03:38:21.217Z,1005.23
2017-12-30T03:39:48.735Z,1005.24
2017-12-30T03:41:15.748Z,1005.23
2017-12-30T03:42:42.734Z,1005.21
2017-12-30T03:44:09.996Z,1005.18
2017-12-30T03:45:37.287Z,1005.18
2017-12-30T03:47:04.477Z,1005.12
2017-12-30T03:48:31.758Z,1005.12
2017-12-30T03:49:58.804Z,1005.03
2017-12-30T03:51:26.089Z,1005.03
2017-12-30T03:52:53.277Z,1005.03
2017-12-30T03:54:20.437Z,1005.09
2017-12-30T03:55:47.802Z,1005.04
2017-12-30T03:57:14.879Z,1005.01
2017-12-30T03:58:41.834Z,1004.96
2017-12-30T04:00:09.161Z,1004.98
2017-12-30T04:01:36.376Z,1004.98
2017-12-30T04:03:03.623Z,1004.96
2017-12-30T04:04:30.793Z,1004.99
2017-12-30T04:05:58.140Z,1005.00
2017-12-30T04:07:25.312Z,1004.95
2017-12-30T04:08:52.546Z,1004.97
2017-12-30T04:10:19.687Z,1004.99
2017-12-30T04:11:46.808Z,1004.96
2017-12-30T04:13:14.079Z,1004.94
2017-12-30T04:14:41.173Z,1004.94
2017-12-30T04:16:08.256Z,1004.90
2017-12-30T04:17:35.156Z,1004.84
2017-12-30T04:19:02.489Z,1004.80
2017-12-30T04:20:29.797Z,1004.74
2017-12-30T04:21:57.143Z,1004.72
2017-12-30T04:23:24.389Z,1004.70
2017-12-30T04:24:51.650Z,1004.71
2017-12-30T04:26:18.794Z,1004.68
2017-12-30T04:27:45.780Z,1004.75
2017-12-30T04:29:12.851Z,1004.76
2017-12-30T04:30:40.144Z,1004.79
2017-12-30T04:32:07.258Z,1004.81
2017-12-30T04:33:34.494Z,1004.77
2017-12-30T04:35:01.587Z,1004.68
2017-12-30T04:36:28.860Z,1004.65
2017-12-30T04:37:56.066Z,1004.61
2017-12-30T04:39:23.362Z,1004.59
2017-12-30T04:40:50.157Z,1004.58
2017-12-30T04:42:17.430Z,1004.57
2017-12-30T04:43:44.599Z,1004.54
2017-12-30T04:45:11.680Z,1004.52
2017-12-30T04:46:38.555Z,1004.49
2017-12-30T04:48:05.706Z,1004.53
2017-12-30T04:49:32.902Z,1004.51
2017-12-30T04:50:59.868Z,1004.48
2017-12-30T04:52:26.970Z,1004.48
2017-12-30T04:53:54.139Z,1004.44
2017-12-30T04:55:21.397Z,1004.43
2017-12-30T04:56:48.474Z,1004.40
2017-12-30T04:58:15.568Z,1004.42
2017-12-30T04:59:42.555Z,1004.42
2017-12-30T05:01:09.882Z,1004.42
2017-12-30T05:02:36.895Z,1004.41
2017-12-30T05:04:04.021Z,1004.40
2017-12-30T05:05:31.314Z,1004.40
2017-12-30T05:06:58.531Z,1004.34
2017-12-30T05:08:25.565Z,1004.32
2017-12-30T05:09:52.846Z,1004.28
2017-12-30T05:11:20.162Z,1004.30
2017-12-30T05:12:47.148Z,1004.30
2017-12-30T05:14:14.356Z,1004.30
2017-12-30T05:15:41.197Z,1004.31
2017-12-30T05:17:08.320Z,1004.29
2017-12-30T05:18:35.621Z,1004.34
2017-12-30T05:20:02.856Z,1004.33
2017-12-30T05:21:29.944Z,1004.39
2017-12-30T05:22:57.175Z,1004.40
2017-12-30T05:24:24.379Z,1004.47
2017-12-30T05:25:51.536Z,1004.44
2017-12-30T05:27:18.820Z,1004.45
2017-12-30T05:28:45.791Z,1004.43
2017-12-30T05:30:12.906Z,1004.41
2017-12-30T05:31:40.072Z,1004.39
2017-12-30T05:33:07.238Z,1004.38
2017-12-30T05:34:34.510Z,1004.42
2017-12-30T05:36:01.584Z,1004.41
2017-12-30T05:37:28.668Z,1004.44
2017-12-30T05:38:56.025Z,1004.42
2017-12-30T05:40:23.093Z,1004.40
2017-12-30T05:41:50.270Z,1004.40
2017-12-30T05:43:17.444Z,1004.45
2017-12-30T05:44:44.616Z,1004.47
2017-12-30T05:46:11.410Z,1004.47
2017-12-30T05:47:38.635Z,1004.50
2017-12-30T05:49:05.813Z,1004.49
2017-12-30T05:50:32.905Z,1004.51
2017-12-30T05:52:00.124Z,1004.46
2017-12-30T05:53:27.265Z,1004.43
2017-12-30T05:54:54.567Z,1004.43
2017-12-30T05:56:21.758Z,1004.45
2017-12-30T05:57:48.844Z,1004.49
2017-12-30T05:59:16.042Z,1004.43
2017-12-30T06:00:43.091Z,1004.45
2017-12-30T06:02:10.371Z,1004.45
2017-12-30T06:03:37.609Z,1004.43
2017-12-30T06:05:04.888Z,1004.42
2017-12-30T06:06:31.945Z,1004.45
2017-12-30T06:07:59.105Z,1004.43
2017-12-30T06:09:26.227Z,1004.45
2017-12-30T06:10:53.493Z,1004.46
2017-12-30T06:12:20.781Z,1004.47
2017-12-30T06:13:47.899Z,1004.45
2017-12-30T06:15:15.063Z,1004.43
2017-12-30T06:16:42.182Z,1004.39
2017-12-30T06:18:09.404Z,1004.44
2017-12-30T06:19:36.541Z,1004.42
2017-12-30T06:21:03.872Z,1004.36
2017-12-30T06:22:31.265Z,1004.34
2017-12-30T06:23:58.355Z,1004.40
2017-12-30T06:25:25.583Z,1004.34
2017-12-30T06:26:52.609Z,1004.36
2017-12-30T06:28:19.810Z,1004.38
2017-12-30T06:29:46.822Z,1004.38
2017-12-30T06:31:13.936Z,1004.40
2017-12-30T06:32:41.089Z,1004.43
2017-12-30T06:34:08.388Z,1004.41
2017-12-30T06:35:35.433Z,1004.45
2017-12-30T06:37:02.560Z,1004.46
2017-12-30T06:38:29.756Z,1004.45
2017-12-30T06:39:56.901Z,1004.53
2017-12-30T06:41:24.152Z,1004.48
2017-12-30T06:42:51.301Z,1004.48
2017-12-30T06:44:18.223Z,1004.49
2017-12-30T06:45:45.473Z,1004.47
2017-12-30T06:47:12.313Z,1004.37
2017-12-30T06:48:39.559Z,1004.41
2017-12-30T06:50:06.812Z,1004.29
2017-12-30T06:51:34.052Z,1004.27
2017-12-30T06:53:01.188Z,1004.29
2017-12-30T06:54:28.486Z,1004.26
2017-12-30T06:55:55.529Z,1004.31
2017-12-30T06:57:22.722Z,1004.30
2017-12-30T06:58:50.089Z,1004.34
2017-12-30T07:00:17.209Z,1004.34
2017-12-30T07:01:44.204Z,1004.29
2017-12-30T07:03:11.619Z,1004.32
2017-12-30T07:04:38.826Z,1004.31
2017-12-30T07:06:05.972Z,1004.23
2017-12-30T07:07:33.184Z,1004.25
2017-12-30T07:09:00.278Z,1004.25
2017-12-30T07:10:27.389Z,1004.23
2017-12-30T07:11:54.593Z,1004.16
2017-12-30T07:13:21.768Z,1004.21
2017-12-30T07:14:48.827Z,1004.23
2017-12-30T07:16:15.980Z,1004.21
2017-12-30T07:17:43.115Z,1004.19
2017-12-30T07:19:10.347Z,1004.21
2017-12-30T07:20:37.587Z,1004.24
2017-12-30T07:22:04.729Z,1004.25
2017-12-30T07:23:31.839Z,1004.26
2017-12-30T07:24:59.154Z,1004.29
2017-12-30T07:26:26.444Z,1004.30
2017-12-30T07:27:53.398Z,1004.31
2017-12-30T07:29:20.712Z,1004.34
2017-12-30T07:30:47.878Z,1004.32
2017-12-30T07:32:14.932Z,1004.27
2017-12-30T07:33:42.067Z,1004.25
2017-12-30T07:35:09.947Z,1004.27
2017-12-30T07:36:36.298Z,1004.23
2017-12-30T07:38:03.530Z,1004.22
2017-12-30T07:39:30.727Z,1004.25
2017-12-30T07:40:57.909Z,1004.26
2017-12-30T07:42:25.056Z,1004.26
2017-12-30T07:43:52.126Z,1004.22
2017-12-30T07:45:19.058Z,1004.27
2017-12-30T07:46:46.325Z,1004.30
2017-12-30T07:48:13.572Z,1004.31
2017-12-30T07:49:40.790Z,1004.34
2017-12-30T07:51:07.973Z,1004.34
2017-12-30T07:52:35.114Z,1004.30
2017-12-30T07:54:02.270Z,1004.28
2017-12-30T07:55:29.112Z,1004.31
2017-12-30T07:56:56.379Z,1004.31
2017-12-30T07:58:23.477Z,1004.29
2017-12-30T07:59:50.638Z,1004.30
2017-12-30T08:01:17.825Z,1004.27
2017-12-30T08:02:44.879Z,1004.29
2017-12-30T08:04:11.844Z,1004.25
2017-12-30T08:05:39.014Z,1004.23
2017-12-30T08:07:06.293Z,1004.18
2017-12-30T08:08:33.442Z,1004.22
2017-12-30T08:10:00.481Z,1004.19
2017-12-30T08:11:27.815Z,1004.21
2017-12-30T08:12:55.026Z,1004.26
2017-12-30T08:14:22.237Z,1004.23
2017-12-30T08:15:49.405Z,1004.20
2017-12-30T08:17:16.522Z,1004.19
2017-12-30T08:18:43.612Z,1004.19
2017-12-30T08:20:10.844Z,1004.16
2017-12-30T08:21:37.918Z,1004.11
2017-12-30T08:23:05.179Z,1004.08
2017-12-30T08:24:32.423Z,1004.04
2017-12-30T08:25:59.731Z,1004.05
2017-12-30T08:27:26.867Z,1004.03
2017-12-30T08:28:54.133Z,1004.01
2017-12-30T08:30:21.257Z,1003.95
2017-12-30T08:31:48.398Z,1003.93
2017-12-30T08:33:15.655Z,1003.92
2017-12-30T08:34:42.903Z,1003.95
2017-12-30T08:36:10.039Z,1003.93
2017-12-30T08:37:37.071Z,1003.89
2017-12-30T08:39:04.225Z,1003.84
2017-12-30T08:40:31.427Z,1003.83
2017-12-30T08:41:58.762Z,1003.86
2017-12-30T08:43:25.918Z,1003.87
2017-12-30T08:44:53.133Z,1003.84
2017-12-30T08:46:20.280Z,1003.83
2017-12-30T08:47:47.568Z,1003.81
2017-12-30T08:49:14.857Z,1003.80
2017-12-30T08:50:41.753Z,1003.79
2017-12-30T08:52:09.014Z,1003.82
2017-12-30T08:53:36.091Z,1003.83
2017-12-30T08:55:03.347Z,1003.82
2017-12-30T08:56:30.618Z,1003.78
2017-12-30T08:57:57.847Z,1003.81
2017-12-30T08:59:24.835Z,1003.82
2017-12-30T09:00:52.140Z,1003.79
2017-12-30T09:02:19.480Z,1003.76
2017-12-30T09:03:46.684Z,1003.76
2017-12-30T09:05:13.833Z,1003.75
2017-12-30T09:06:41.235Z,1003.77
2017-12-30T09:08:08.492Z,1003.75
2017-12-30T09:09:35.670Z,1003.71
2017-12-30T09:11:02.754Z,1003.70
2017-12-30T09:12:30.079Z,1003.65
2017-12-30T09:13:57.374Z,1003.62
2017-12-30T09:15:24.539Z,1003.56
2017-12-30T09:16:51.829Z,1003.52
2017-12-30T09:18:18.842Z,1003.52
2017-12-30T09:19:46.112Z,1003.50
2017-12-30T09:21:13.321Z,1003.49
2017-12-30T09:22:40.566Z,1003.49
2017-12-30T09:24:07.768Z,1003.51
2017-12-30T09:25:34.984Z,1003.54
2017-12-30T09:27:02.313Z,1003.58
2017-12-30T09:28:29.551Z,1003.54
2017-12-30T09:29:56.836Z,1003.59
2017-12-30T09:31:24.091Z,1003.56
2017-12-30T09:32:51.389Z,1003.57
2017-12-30T09:34:18.681Z,1003.60
2017-12-30T09:35:46.011Z,1003.64
2017-12-30T09:37:13.223Z,1003.59
2017-12-30T09:38:40.365Z,1003.60
2017-12-30T09:40:07.613Z,1003.60
2017-12-30T09:41:34.790Z,1003.57
2017-12-30T09:43:02.033Z,1003.56
2017-12-30T09:44:29.201Z,1003.54
2017-12-30T09:45:56.498Z,1003.47
2017-12-30T09:47:23.847Z,1003.44
2017-12-30T09:48:50.917Z,1003.39
2017-12-30T09:50:18.193Z,1003.38
2017-12-30T09:51:45.341Z,1003.35
2017-12-30T09:53:12.368Z,1003.34
2017-12-30T09:54:39.624Z,1003.31
2017-12-30T09:56:06.966Z,1003.32
2017-12-30T09:57:34.259Z,1003.30
2017-12-30T09:59:01.237Z,1003.26
2017-12-30T10:00:28.478Z,1003.21
2017-12-30T10:01:55.667Z,1003.20
2017-12-30T10:03:22.986Z,1003.17
2017-12-30T10:04:50.091Z,1003.10
2017-12-30T10:06:17.296Z,1003.08
2017-12-30T10:07:44.586Z,1003.08
2017-12-30T10:09:11.594Z,1003.02
2017-12-30T10:10:38.741Z,1003.03
2017-12-30T10:12:05.853Z,1003.07
2017-12-30T10:13:32.991Z,1002.99
2017-12-30T10:15:00.070Z,1003.01
2017-12-30T10:16:27.290Z,1003.04
2017-12-30T10:17:54.514Z,1003.03
2017-12-30T10:19:21.723Z,1003.02
2017-12-30T10:20:48.978Z,1002.96
2017-12-30T10:22:16.026Z,1002.95
2017-12-30T10:23:43.163Z,1002.94
2017-12-30T10:25:10.341Z,1002.94
2017-12-30T10:26:37.645Z,1002.85
2017-12-30T10:28:04.805Z,1002.83
2017-12-30T10:29:32.269Z,1002.82
2017-12-30T10:30:59.397Z,1002.78
2017-12-30T10:32:26.633Z,1002.72
2017-12-30T10:33:53.882Z,1002.73
2017-12-30T10:35:21.018Z,1002.69
2017-12-30T10:36:48.335Z,1002.68
2017-12-30T10:38:15.360Z,1002.62
2017-12-30T10:39:42.550Z,1002.57
2017-12-30T10:41:09.545Z,1002.50
2017-12-30T10:42:36.924Z,1002.48
2017-12-30T10:44:03.816Z,1002.46
2017-12-30T10:45:30.844Z,1002.45
2017-12-30T10:46:58.332Z,1002.43
2017-12-30T10:48:25.249Z,1002.40
2017-12-30T10:49:52.326Z,1002.37
2017-12-30T10:51:19.586Z,1002.35
2017-12-30T10:52:46.821Z,1002.32
2017-12-30T10:54:15.119Z,1002.33
2017-12-30T10:55:41.353Z,1002.30
2017-12-30T10:57:08.117Z,1002.25
2017-12-30T10:58:35.620Z,1002.21
2017-12-30T11:00:01.342Z,1002.19
2017-12-30T11:01:28.234Z,1002.13
2017-12-30T11:02:55.228Z,1002.06
2017-12-30T11:04:22.415Z,1002.01
2017-12-30T11:05:49.677Z,1002.00
2017-12-30T11:07:16.796Z,1002.02
2017-12-30T11:08:43.716Z,1001.96
2017-12-30T11:10:10.919Z,1001.95
2017-12-30T11:11:38.092Z,1001.91
2017-12-30T11:13:05.276Z,1001.89
2017-12-30T11:14:32.434Z,1001.85
2017-12-30T11:15:59.836Z,1001.83
2017-12-30T11:17:27.205Z,1001.79
2017-12-30T11:18:54.503Z,1001.74
2017-12-30T11:20:21.838Z,1001.68
2017-12-30T11:21:48.936Z,1001.65
2017-12-30T11:23:15.976Z,1001.62
2017-12-30T11:24:43.053Z,1001.58
2017-12-30T11:26:10.249Z,1001.59
2017-12-30T11:27:37.567Z,1001.54
2017-12-30T11:29:04.900Z,1001.50
2017-12-30T11:30:32.125Z,1001.47
2017-12-30T11:31:59.583Z,1001.40
2017-12-30T11:33:26.709Z,1001.37
2017-12-30T11:34:54.003Z,1001.34
2017-12-30T11:36:21.341Z,1001.33
2017-12-30T11:37:48.210Z,1001.34
2017-12-30T11:39:15.404Z,1001.34
2017-12-30T11:40:42.498Z,1001.33
2017-12-30T11:42:09.848Z,1001.35
2017-12-30T11:43:37.024Z,1001.34
2017-12-30T11:45:04.338Z,1001.27
2017-12-30T11:46:31.569Z,1001.20
2017-12-30T11:47:58.746Z,1001.17
2017-12-30T11:49:25.912Z,1001.16
2017-12-30T11:50:53.327Z,1001.14
2017-12-30T11:52:20.518Z,1001.13
2017-12-30T11:53:47.586Z,1001.11
2017-12-30T11:55:14.694Z,1001.04
2017-12-30T11:56:41.683Z,1001.01
2017-12-30T11:58:08.701Z,1000.99
2017-12-30T11:59:35.891Z,1000.98
2017-12-30T12:01:03.015Z,1000.99
2017-12-30T12:02:30.345Z,1000.97
2017-12-30T12:03:57.575Z,1000.95
2017-12-30T12:05:24.860Z,1000.90
2017-12-30T12:06:52.121Z,1000.89
2017-12-30T12:08:19.358Z,1000.83
2017-12-30T12:09:46.722Z,1000.78
2017-12-30T12:11:13.676Z,1000.75
2017-12-30T12:12:40.790Z,1000.78
2017-12-30T12:14:07.760Z,1000.72
2017-12-30T12:15:34.878Z,1000.72
2017-12-30T12:17:02.204Z,1000.66
2017-12-30T12:18:29.364Z,1000.59
2017-12-30T12:19:56.563Z,1000.61
2017-12-30T12:21:23.856Z,1000.56
2017-12-30T12:22:51.066Z,1000.50
2017-12-30T12:24:18.327Z,1000.50
2017-12-30T12:25:45.441Z,1000.46
2017-12-30T12:27:12.641Z,1000.39
2017-12-30T12:28:39.945Z,1000.36
2017-12-30T12:30:07.289Z,1000.37
2017-12-30T12:31:34.444Z,1000.35
2017-12-30T12:33:01.480Z,1000.35
2017-12-30T12:34:28.737Z,1000.34
2017-12-30T12:35:56.105Z,1000.34
2017-12-30T12:37:23.255Z,1000.31
2017-12-30T12:38:50.381Z,1000.26
2017-12-30T12:40:17.524Z,1000.24
2017-12-30T12:41:44.328Z,1000.26
2017-12-30T12:43:11.668Z,1000.25
2017-12-30T12:44:38.923Z,1000.24
2017-12-30T12:46:06.101Z,1000.23
2017-12-30T12:47:33.327Z,1000.20
2017-12-30T12:49:00.528Z,1000.19
2017-12-30T12:50:27.727Z,1000.14
2017-12-30T12:51:54.971Z,1000.15
2017-12-30T12:53:22.000Z,1000.16
2017-12-30T12:54:49.281Z,1000.16
2017-12-30T12:56:16.414Z,1000.12
2017-12-30T12:57:43.527Z,1000.11
2017-12-30T12:59:10.799Z,1000.10
2017-12-30T13:00:37.961Z,1000.09
2017-12-30T13:02:05.303Z,1000.11
2017-12-30T13:03:32.666Z,1000.14
2017-12-30T13:04:59.981Z,1000.11
2017-12-30T13:06:27.361Z,1000.08
2017-12-30T13:07:54.617Z,1000.07
2017-12-30T13:09:21.910Z,1000.01
2017-12-30T13:10:49.215Z,1000.00
2017-12-30T13:12:16.508Z,1000.00
2017-12-30T13:13:43.460Z,1000.02
2017-12-30T13:15:10.614Z,1000.02
2017-12-30T13:16:38.054Z,1000.05
2017-12-30T13:18:04.979Z,1000.04
2017-12-30T13:19:32.263Z,1000.03
2017-12-30T13:20:59.331Z,1000.05
2017-12-30T13:22:26.682Z,1000.04
2017-12-30T13:23:53.897Z,1000.06
2017-12-30T13:25:20.867Z,1000.06
2017-12-30T13:26:48.148Z,1000.03
2017-12-30T13:28:15.332Z,999.99
2017-12-30T13:29:42.433Z,999.99
2017-12-30T13:31:09.574Z,1000.00
2017-12-30T13:32:36.704Z,999.98
2017-12-30T13:34:03.759Z,999.96
2017-12-30T13:35:31.014Z,999.95
2017-12-30T13:36:58.222Z,999.94
2017-12-30T13:38:25.382Z,999.92
2017-12-30T13:39:52.674Z,999.91
2017-12-30T13:41:19.885Z,999.89
2017-12-30T13:42:46.722Z,999.85
2017-12-30T13:44:13.489Z,999.83
2017-12-30T13:45:40.755Z,999.80
2017-12-30T13:47:07.966Z,999.79
2017-12-30T13:48:35.236Z,999.75
2017-12-30T13:50:02.605Z,999.75
2017-12-30T13:51:29.845Z,999.70
2017-12-30T13:52:57.168Z,999.66
2017-12-30T13:54:24.188Z,999.65
2017-12-30T13:55:51.478Z,999.64
2017-12-30T13:57:18.662Z,999.61
2017-12-30T13:58:45.939Z,999.52
2017-12-30T14:00:13.015Z,999.50
2017-12-30T14:01:40.171Z,999.47
2017-12-30T14:03:07.227Z,999.40
2017-12-30T14:04:34.402Z,999.37
2017-12-30T14:06:01.795Z,999.33
2017-12-30T14:07:29.180Z,999.32
2017-12-30T14:08:56.354Z,999.30
2017-12-30T14:10:23.639Z,999.28
2017-12-30T14:11:50.705Z,999.27
2017-12-30T14:13:17.849Z,999.27
2017-12-30T14:14:45.033Z,999.25
2017-12-30T14:16:12.091Z,999.23
2017-12-30T14:17:39.220Z,999.25
2017-12-30T14:19:06.396Z,999.20
2017-12-30T14:20:33.727Z,999.17
2017-12-30T14:22:00.811Z,999.16
2017-12-30T14:23:28.032Z,999.14
2017-12-30T14:24:55.450Z,999.11
2017-12-30T14:26:22.574Z,999.13
2017-12-30T14:27:49.831Z,999.11
2017-12-30T14:29:17.016Z,999.06
2017-12-30T14:30:44.174Z,998.99
2017-12-30T14:32:11.305Z,998.94
2017-12-30T14:33:38.530Z,998.93
2017-12-30T14:35:05.864Z,998.92
2017-12-30T14:36:33.107Z,998.92
2017-12-30T14:38:00.431Z,998.87
2017-12-30T14:39:27.465Z,998.82
2017-12-30T14:40:54.667Z,998.82
2017-12-30T14:42:21.779Z,998.76
2017-12-30T14:43:49.059Z,998.71
2017-12-30T14:45:16.187Z,998.68
2017-12-30T14:46:43.182Z,998.64
2017-12-30T14:48:10.393Z,998.59
2017-12-30T14:49:37.677Z,998.55
2017-12-30T14:51:04.827Z,998.50
2017-12-30T14:52:32.050Z,998.41
2017-12-30T14:53:59.321Z,998.40
2017-12-30T14:55:26.527Z,998.35
2017-12-30T14:56:53.821Z,998.34
2017-12-30T14:58:20.710Z,998.35
2017-12-30T14:59:48.033Z,998.30
2017-12-30T15:01:15.163Z,998.29
2017-12-30T15:02:42.131Z,998.30
2017-12-30T15:04:09.247Z,998.30
2017-12-30T15:05:36.677Z,998.28
2017-12-30T15:07:03.896Z,998.23
2017-12-30T15:08:31.120Z,998.16
2017-12-30T15:09:58.367Z,998.10
2017-12-30T15:11:25.815Z,998.10
2017-12-30T15:12:52.713Z,998.10
2017-12-30T15:14:19.756Z,998.09
2017-12-30T15:15:46.734Z,998.04
2017-12-30T15:17:13.703Z,998.03
2017-12-30T15:18:40.732Z,997.99
2017-12-30T15:20:07.798Z,997.97
2017-12-30T15:21:34.720Z,997.99
2017-12-30T15:23:01.766Z,997.97
2017-12-30T15:24:28.871Z,997.91
2017-12-30T15:25:56.173Z,997.94
2017-12-30T15:27:23.222Z,997.93
2017-12-30T15:28:50.453Z,997.87
2017-12-30T15:30:17.641Z,997.87
2017-12-30T15:31:44.778Z,997.79
2017-12-30T15:33:11.825Z,997.75
2017-12-30T15:34:39.051Z,997.71
2017-12-30T15:36:06.081Z,997.71
2017-12-30T15:37:33.352Z,997.72
2017-12-30T15:39:00.661Z,997.72
2017-12-30T15:40:27.810Z,997.66
2017-12-30T15:41:54.911Z,997.65
2017-12-30T15:43:21.776Z,997.63
2017-12-30T15:44:48.778Z,997.58
2017-12-30T15:46:15.822Z,997.54
2017-12-30T15:47:42.998Z,997.48
2017-12-30T15:49:10.110Z,997.48
2017-12-30T15:50:37.272Z,997.47
2017-12-30T15:52:04.425Z,997.43
2017-12-30T15:53:31.764Z,997.40
2017-12-30T15:54:59.079Z,997.38
2017-12-30T15:56:26.251Z,997.37
2017-12-30T15:57:53.263Z,997.38
2017-12-30T15:59:20.465Z,997.42
2017-12-30T16:00:47.525Z,997.49
2017-12-30T16:02:14.401Z,997.41
2017-12-30T16:03:41.816Z,997.43
2017-12-30T16:05:09.115Z,997.40
2017-12-30T16:06:36.278Z,997.38
2017-12-30T16:08:03.427Z,997.35
2017-12-30T16:09:30.619Z,997.32
2017-12-30T16:10:57.868Z,997.24
2017-12-30T16:12:25.020Z,997.18
2017-12-30T16:13:52.147Z,997.14
2017-12-30T16:15:19.461Z,997.11
2017-12-30T16:16:46.778Z,997.09
2017-12-30T16:18:13.886Z,997.08
2017-12-30T16:19:41.275Z,996.96
2017-12-30T16:21:08.324Z,996.99
2017-12-30T16:22:35.683Z,996.97
2017-12-30T16:24:02.744Z,996.99
2017-12-30T16:25:29.823Z,996.99
2017-12-30T16:26:56.968Z,996.96
2017-12-30T16:28:24.242Z,996.96
2017-12-30T16:29:51.254Z,996.88
2017-12-30T16:31:15.300Z,996.78
2017-12-30T16:32:45.468Z,996.73
2017-12-30T16:34:12.876Z,996.76
2017-12-30T16:35:39.975Z,996.77
2017-12-30T16:37:07.317Z,996.78
2017-12-30T16:38:34.236Z,996.66
2017-12-30T16:40:01.506Z,996.58
2017-12-30T16:41:28.499Z,996.61
2017-12-30T16:42:55.502Z,996.59
2017-12-30T16:44:22.712Z,996.61
2017-12-30T16:45:49.893Z,996.57
2017-12-30T16:47:16.977Z,996.50
2017-12-30T16:48:44.047Z,996.51
2017-12-30T16:50:11.236Z,996.56
2017-12-30T16:51:38.484Z,996.51
2017-12-30T16:53:05.796Z,996.44
2017-12-30T16:54:32.778Z,996.48
2017-12-30T16:56:00.007Z,996.48
2017-12-30T16:57:27.061Z,996.41
2017-12-30T16:58:54.197Z,996.35
2017-12-30T17:00:21.450Z,996.39
2017-12-30T17:01:48.789Z,996.38
2017-12-30T17:03:15.909Z,996.36
2017-12-30T17:04:42.865Z,996.34
2017-12-30T17:06:10.192Z,996.38
2017-12-30T17:07:37.662Z,996.35
2017-12-30T17:09:04.609Z,996.30
2017-12-30T17:10:31.962Z,996.25
2017-12-30T17:11:59.191Z,996.23
2017-12-30T17:13:26.461Z,996.19
2017-12-30T17:14:53.558Z,996.15
2017-12-30T17:16:20.596Z,996.13
2017-12-30T17:17:47.489Z,996.07
2017-12-30T17:19:14.678Z,996.06
2017-12-30T17:20:41.757Z,996.02
2017-12-30T17:22:09.043Z,996.01
2017-12-30T17:23:36.142Z,995.99
2017-12-30T17:25:03.287Z,995.96
2017-12-30T17:26:30.324Z,995.91
2017-12-30T17:27:57.470Z,995.87
2017-12-30T17:29:24.613Z,995.87
2017-12-30T17:30:51.826Z,995.83
2017-12-30T17:32:19.114Z,995.81
2017-12-30T17:33:46.268Z,995.86
2017-12-30T17:35:13.493Z,995.82
2017-12-30T17:36:40.617Z,995.72
2017-12-30T17:38:07.999Z,995.66
2017-12-30T17:39:35.179Z,995.70
2017-12-30T17:41:02.488Z,995.68
2017-12-30T17:42:29.563Z,995.73